Flight Track Log - Related Links

Times and Time Zones

All times are in EDT time to prevent confusion due to time zone crossing. See the CFS692 flight status page for this flight to view local times or setup timezone preferences in your user account.

Time Position Orientation Groundspeed Altitude Reporting Facility
EDT Latitude Longitude Course Direction KTS MPH feet Rate Location/Type
Thu 10:18:24 AM 45.5756 -122.6239 214° Southwest 95 109 700  Level Seattle Center
Thu 10:18:54 AM 45.5647 -122.6344 214° Southwest 98 113 1,100 923 Climbing Seattle Center
Thu 10:19:55 AM 45.5414 -122.6594 217° Southwest 101 116 2,100 828 Climbing Seattle Center
Thu 10:20:50 AM 45.5183 -122.6411 151° Southeast 110 127 2,700 738 Climbing Seattle Center
Thu 10:21:57 AM 45.4872 -122.6044 140° Southeast 134 154 3,600 694 Climbing Seattle Center
Thu 10:22:51 AM 45.4606 -122.5692 137° Southeast 139 160 4,100 558 Climbing Seattle Center
Thu 10:23:23 AM 45.4531 -122.5594 138° Southeast 134 154 4,400 716 Climbing Seattle Center
Thu 10:23:58 AM 45.4261 -122.5278 140° Southeast 153 176 4,900 787 Climbing Seattle Center
Thu 10:24:24 AM 45.4136 -122.5119 138° Southeast 148 170 5,200 759 Climbing Seattle Center
Thu 10:25:25 AM 45.3819 -122.4731 139° Southeast 151 174 6,000 689 Climbing Seattle Center
Thu 10:26:26 AM 45.3539 -122.4375 138° Southeast 141 162 6,600 541 Climbing Seattle Center
Thu 10:27:27 AM 45.3225 -122.4019 141° Southeast 143 165 7,100 541 Climbing Seattle Center
Thu 10:28:28 AM 45.2900 -122.3617 139° Southeast 153 176 7,700 541 Climbing Seattle Center
Thu 10:29:29 AM 45.2608 -122.3269 140° Southeast 142 163 8,200 492 Climbing Seattle Center
Thu 10:30:30 AM 45.2297 -122.2892 139° Southeast 146 168 8,700 492 Climbing Seattle Center
Thu 10:31:31 AM 45.2000 -122.2539 140° Southeast 141 162 9,200 443 Climbing Seattle Center
Thu 10:32:32 AM 45.1706 -122.2175 139° Southeast 139 160 9,600 148 Climbing Seattle Center
Thu 10:33:33 AM 45.1378 -122.1797 141° Southeast 146 168 9,500 -49 Descending Seattle Center
Thu 10:34:34 AM 45.1036 -122.1350 137° Southeast 159 183 9,500  Level Seattle Center
Thu 10:35:35 AM 45.0681 -122.0931 140° Southeast 165 190 9,500  Level Seattle Center
Thu 10:36:36 AM 45.0328 -122.0503 139° Southeast 166 191 9,500  Level Seattle Center
Thu 10:37:37 AM 44.9897 -121.9992 140° Southeast 168 193 9,500  Level Seattle Center
Thu 10:38:37 AM 44.9539 -121.9564 140° Southeast 168 193 9,500  Level Seattle Center
Thu 10:39:38 AM 44.9181 -121.9153 141° Southeast 167 192 9,500  Level Seattle Center
Thu 10:40:39 AM 44.8794 -121.8692 140° Southeast 171 197 9,500  Level Seattle Center
Thu 10:41:40 AM 44.8442 -121.8264 139° Southeast 170 196 9,500  Level Seattle Center
Thu 10:42:41 AM 44.8075 -121.7842 141° Southeast 170 196 9,500  Level Seattle Center
Thu 10:43:42 AM 44.7708 -121.7419 141° Southeast 171 197 9,500  Level Seattle Center
Thu 10:44:43 AM 44.7353 -121.7000 140° Southeast 168 193 9,500  Level Seattle Center
Thu 10:45:44 AM 44.6994 -121.6569 139° Southeast 169 194 9,500  Level Seattle Center
Thu 10:46:45 AM 44.6631 -121.6153 141° Southeast 171 197 9,500  Level Seattle Center
Thu 10:47:46 AM 44.6258 -121.5750 142° Southeast 170 196 9,500  Level Seattle Center
Thu 10:48:47 AM 44.5889 -121.5328 141° Southeast 171 197 9,500  Level Seattle Center
Thu 10:49:48 AM 44.5506 -121.4886 141° Southeast 169 194 9,500 -246 Level Seattle Center
Thu 10:50:49 AM 44.5119 -121.4450 141° Southeast 176 203 9,000 -443 Descending Seattle Center
Thu 10:51:50 AM 44.4736 -121.3994 140° Southeast 180 207 8,600 -492 Descending Seattle Center
Thu 10:52:51 AM 44.4342 -121.3564 142° Southeast 179 206 8,000 -590 Descending Seattle Center

Login

Don't have an account? Register now (free) for customized features, flight alerts, and more!